createdAt,value
2019-03-31T07:45:43.209Z,46.70
2019-03-31T07:48:14.497Z,46.60
2019-03-31T07:51:03.822Z,46.40
2019-03-31T07:54:03.799Z,46.10
2019-03-31T07:57:24.147Z,45.90
2019-03-31T08:08:18.894Z,45.20
2019-03-31T08:11:20.649Z,45.20
2019-03-31T08:14:02.096Z,45.30
2019-03-31T08:16:46.065Z,45.40
2019-03-31T08:19:27.006Z,45.50
2019-03-31T08:22:05.709Z,45.30
2019-03-31T08:24:45.884Z,45.30
2019-03-31T08:27:27.544Z,45.00
2019-03-31T08:31:29.672Z,45.00
2019-03-31T11:20:53.253Z,31.10
2019-03-31T13:31:48.253Z,27.40
2019-03-31T16:02:09.568Z,27.40
2019-03-31T16:17:35.113Z,27.70
2019-03-31T16:24:09.381Z,28.30
2019-03-31T17:25:23.180Z,30.70
2019-03-31T17:28:12.364Z,30.70
2019-03-31T17:30:58.881Z,30.70
2019-03-31T17:33:45.192Z,30.70
2019-03-31T17:36:33.634Z,30.40
2019-03-31T17:39:26.682Z,30.20
2019-03-31T17:42:10.756Z,30.20
2019-03-31T17:44:59.688Z,30.10
2019-03-31T17:47:50.314Z,30.20
2019-03-31T17:50:26.789Z,30.30
2019-03-31T17:53:22.668Z,30.30
2019-03-31T17:56:12.852Z,30.30
2019-03-31T17:59:02.758Z,30.30
2019-03-31T18:01:50.178Z,30.30
2019-03-31T18:04:32.753Z,30.40
2019-03-31T18:30:41.890Z,31.10
2019-03-31T18:53:20.214Z,32.20
2019-03-31T19:04:14.477Z,32.70
2019-03-31T19:10:31.662Z,33.00
2019-03-31T19:13:54.852Z,33.00
2019-03-31T19:16:39.464Z,33.20
2019-03-31T19:19:54.927Z,33.30
